KMBL

Manistee Co-Blacker Airport

Manistee, Michigan, USA
METAR KMBL 161356Z AUTO 10003KT 9SM -SN OVC040 M07/M09 A2994 RMK AO2 SNE06B50 SLP160 T10721089 FZRANO PNO $
Observed Flight Rules
Dec-16 @ 13:56 UTC (57 minutes ago) Visual Flight Rules
Wind Visibility Clouds Conditions
100° at 3 knots 9 miles
  • Overcast at 4,000' AGL
  • Light Snow
Temperatures Readings
Current -7°C / 19°F
Dewpoint -9°C / 16°F
Humidity 86%
Altimeter 29.94" Hg
Pressure 1016 hPa
Elevation 189
METAR KMBL 161356Z AUTO 10003KT 9SM -SN OVC040 M07/M09 A2994 RMK AO2 SNE06B50 SLP160 T10721089 FZRANO PNO $
Observed Flight Rules
Dec-16 @ 13:56 UTC
(57 minutes ago)
VFR
Wind Visibility
100° at 3 knots 9 miles
Clouds
  • Overcast at 4,000' AGL
Conditions
  • Light Snow
Temperature Dewpoint
-7°C / 19°F -9°C / 16°F
Humidity Altimeter Pressure
86% 29.94" Hg 1016 hPa